sensor_id;sensor_type;location;lat;lon;timestamp;P1;durP1;ratioP1;P2;durP2;ratioP2
9496;SDS011;4786;51.270;4.456;2024-02-28T00:01:47;7.60;;;6.80;;
9496;SDS011;4786;51.270;4.456;2024-02-28T00:04:16;8.67;;;6.90;;
9496;SDS011;4786;51.270;4.456;2024-02-28T00:06:42;8.27;;;6.50;;
9496;SDS011;4786;51.270;4.456;2024-02-28T00:09:08;7.77;;;6.97;;
9496;SDS011;4786;51.270;4.456;2024-02-28T00:11:42;8.23;;;6.80;;
9496;SDS011;4786;51.270;4.456;2024-02-28T00:14:09;7.10;;;6.40;;
9496;SDS011;4786;51.270;4.456;2024-02-28T00:16:35;7.07;;;6.23;;
9496;SDS011;4786;51.270;4.456;2024-02-28T00:19:01;8.87;;;6.73;;
9496;SDS011;4786;51.270;4.456;2024-02-28T00:21:28;7.83;;;7.03;;
9496;SDS011;4786;51.270;4.456;2024-02-28T00:23:54;7.93;;;7.13;;
9496;SDS011;4786;51.270;4.456;2024-02-28T00:26:19;7.47;;;6.63;;
9496;SDS011;4786;51.270;4.456;2024-02-28T00:28:45;9.07;;;6.97;;
9496;SDS011;4786;51.270;4.456;2024-02-28T00:31:11;7.53;;;6.63;;
9496;SDS011;4786;51.270;4.456;2024-02-28T00:33:37;8.07;;;7.27;;
9496;SDS011;4786;51.270;4.456;2024-02-28T00:36:03;7.53;;;6.83;;
9496;SDS011;4786;51.270;4.456;2024-02-28T00:38:29;8.10;;;6.90;;
9496;SDS011;4786;51.270;4.456;2024-02-28T00:40:55;8.77;;;7.13;;
9496;SDS011;4786;51.270;4.456;2024-02-28T00:43:21;7.17;;;6.50;;
9496;SDS011;4786;51.270;4.456;2024-02-28T00:45:47;9.23;;;6.80;;
9496;SDS011;4786;51.270;4.456;2024-02-28T00:48:13;7.57;;;6.77;;
9496;SDS011;4786;51.270;4.456;2024-02-28T00:50:39;8.93;;;6.87;;
9496;SDS011;4786;51.270;4.456;2024-02-28T00:53:05;7.60;;;6.90;;
9496;SDS011;4786;51.270;4.456;2024-02-28T00:55:30;8.37;;;7.40;;
9496;SDS011;4786;51.270;4.456;2024-02-28T00:57:56;7.73;;;6.63;;
9496;SDS011;4786;51.270;4.456;2024-02-28T01:00:22;8.17;;;7.27;;
9496;SDS011;4786;51.270;4.456;2024-02-28T01:02:48;7.40;;;6.27;;
9496;SDS011;4786;51.270;4.456;2024-02-28T01:05:14;7.10;;;6.10;;
9496;SDS011;4786;51.270;4.456;2024-02-28T01:07:40;7.37;;;6.17;;
9496;SDS011;4786;51.270;4.456;2024-02-28T01:10:06;9.30;;;6.87;;
9496;SDS011;4786;51.270;4.456;2024-02-28T01:12:32;7.43;;;6.60;;
9496;SDS011;4786;51.270;4.456;2024-02-28T01:14:58;7.07;;;6.37;;
9496;SDS011;4786;51.270;4.456;2024-02-28T01:17:24;7.20;;;6.50;;
9496;SDS011;4786;51.270;4.456;2024-02-28T01:19:50;7.20;;;6.50;;
9496;SDS011;4786;51.270;4.456;2024-02-28T01:22:16;7.47;;;6.77;;
9496;SDS011;4786;51.270;4.456;2024-02-28T01:24:42;7.00;;;6.30;;
9496;SDS011;4786;51.270;4.456;2024-02-28T01:27:08;8.33;;;6.97;;
9496;SDS011;4786;51.270;4.456;2024-02-28T01:29:34;7.20;;;6.30;;
9496;SDS011;4786;51.270;4.456;2024-02-28T01:32:00;8.50;;;7.03;;
9496;SDS011;4786;51.270;4.456;2024-02-28T01:34:26;6.47;;;5.83;;
9496;SDS011;4786;51.270;4.456;2024-02-28T01:36:52;9.90;;;6.33;;
9496;SDS011;4786;51.270;4.456;2024-02-28T01:39:19;7.37;;;6.37;;
9496;SDS011;4786;51.270;4.456;2024-02-28T01:41:54;6.93;;;6.23;;
9496;SDS011;4786;51.270;4.456;2024-02-28T01:44:21;9.03;;;7.17;;
9496;SDS011;4786;51.270;4.456;2024-02-28T01:46:47;10.23;;;6.90;;
9496;SDS011;4786;51.270;4.456;2024-02-28T01:49:13;7.33;;;6.60;;
9496;SDS011;4786;51.270;4.456;2024-02-28T01:51:41;9.30;;;7.30;;
9496;SDS011;4786;51.270;4.456;2024-02-28T01:54:07;6.93;;;6.30;;
9496;SDS011;4786;51.270;4.456;2024-02-28T01:56:34;9.93;;;7.07;;
9496;SDS011;4786;51.270;4.456;2024-02-28T01:58:59;8.30;;;6.60;;
9496;SDS011;4786;51.270;4.456;2024-02-28T02:01:27;7.77;;;6.97;;
9496;SDS011;4786;51.270;4.456;2024-02-28T02:03:53;6.73;;;6.13;;
9496;SDS011;4786;51.270;4.456;2024-02-28T02:06:19;7.47;;;6.67;;
9496;SDS011;4786;51.270;4.456;2024-02-28T02:08:46;6.93;;;6.33;;
9496;SDS011;4786;51.270;4.456;2024-02-28T02:11:13;7.23;;;6.50;;
9496;SDS011;4786;51.270;4.456;2024-02-28T02:13:50;10.67;;;7.17;;
9496;SDS011;4786;51.270;4.456;2024-02-28T02:16:16;7.93;;;6.47;;
9496;SDS011;4786;51.270;4.456;2024-02-28T02:18:43;7.47;;;6.67;;
9496;SDS011;4786;51.270;4.456;2024-02-28T02:21:09;8.57;;;7.00;;
9496;SDS011;4786;51.270;4.456;2024-02-28T02:23:38;9.00;;;6.57;;
9496;SDS011;4786;51.270;4.456;2024-02-28T02:26:06;7.20;;;6.47;;
9496;SDS011;4786;51.270;4.456;2024-02-28T02:28:33;11.13;;;6.97;;
9496;SDS011;4786;51.270;4.456;2024-02-28T02:30:58;10.17;;;7.00;;
9496;SDS011;4786;51.270;4.456;2024-02-28T02:33:24;7.50;;;6.70;;
9496;SDS011;4786;51.270;4.456;2024-02-28T02:35:51;8.10;;;6.23;;
9496;SDS011;4786;51.270;4.456;2024-02-28T02:38:17;7.47;;;6.73;;
9496;SDS011;4786;51.270;4.456;2024-02-28T02:40:43;7.50;;;6.63;;
9496;SDS011;4786;51.270;4.456;2024-02-28T02:43:13;7.63;;;6.63;;
9496;SDS011;4786;51.270;4.456;2024-02-28T02:45:39;9.57;;;6.57;;
9496;SDS011;4786;51.270;4.456;2024-02-28T02:48:04;9.57;;;7.17;;
9496;SDS011;4786;51.270;4.456;2024-02-28T02:50:30;8.37;;;6.80;;
9496;SDS011;4786;51.270;4.456;2024-02-28T02:52:56;7.53;;;6.70;;
9496;SDS011;4786;51.270;4.456;2024-02-28T02:55:22;8.43;;;6.63;;
9496;SDS011;4786;51.270;4.456;2024-02-28T02:57:49;9.50;;;7.17;;
9496;SDS011;4786;51.270;4.456;2024-02-28T03:00:14;8.50;;;6.70;;
9496;SDS011;4786;51.270;4.456;2024-02-28T03:02:40;7.57;;;6.50;;
9496;SDS011;4786;51.270;4.456;2024-02-28T03:05:07;8.27;;;6.73;;
9496;SDS011;4786;51.270;4.456;2024-02-28T03:07:33;10.43;;;6.77;;
9496;SDS011;4786;51.270;4.456;2024-02-28T03:09:59;10.07;;;7.10;;
9496;SDS011;4786;51.270;4.456;2024-02-28T03:12:25;7.57;;;6.73;;
9496;SDS011;4786;51.270;4.456;2024-02-28T03:14:51;7.80;;;7.03;;
9496;SDS011;4786;51.270;4.456;2024-02-28T03:17:17;9.33;;;6.87;;
9496;SDS011;4786;51.270;4.456;2024-02-28T03:19:42;9.57;;;6.87;;
9496;SDS011;4786;51.270;4.456;2024-02-28T03:22:09;8.57;;;6.80;;
9496;SDS011;4786;51.270;4.456;2024-02-28T03:24:35;8.30;;;7.50;;
9496;SDS011;4786;51.270;4.456;2024-02-28T03:27:01;9.40;;;7.43;;
9496;SDS011;4786;51.270;4.456;2024-02-28T03:29:28;10.60;;;7.27;;
9496;SDS011;4786;51.270;4.456;2024-02-28T03:31:54;9.13;;;7.13;;
9496;SDS011;4786;51.270;4.456;2024-02-28T03:34:20;8.43;;;7.60;;
9496;SDS011;4786;51.270;4.456;2024-02-28T03:36:46;7.97;;;7.00;;
9496;SDS011;4786;51.270;4.456;2024-02-28T03:39:12;8.10;;;7.30;;
9496;SDS011;4786;51.270;4.456;2024-02-28T03:41:38;8.37;;;7.53;;
9496;SDS011;4786;51.270;4.456;2024-02-28T03:44:04;10.43;;;7.67;;
9496;SDS011;4786;51.270;4.456;2024-02-28T03:46:30;8.00;;;7.20;;
9496;SDS011;4786;51.270;4.456;2024-02-28T03:48:56;9.37;;;8.00;;
9496;SDS011;4786;51.270;4.456;2024-02-28T03:51:22;8.63;;;7.83;;
9496;SDS011;4786;51.270;4.456;2024-02-28T03:53:48;8.70;;;7.80;;
9496;SDS011;4786;51.270;4.456;2024-02-28T03:56:27;9.83;;;7.60;;
9496;SDS011;4786;51.270;4.456;2024-02-28T03:58:53;9.27;;;6.97;;
9496;SDS011;4786;51.270;4.456;2024-02-28T04:01:19;9.73;;;8.07;;
9496;SDS011;4786;51.270;4.456;2024-02-28T04:03:46;9.40;;;7.40;;
9496;SDS011;4786;51.270;4.456;2024-02-28T04:06:12;8.17;;;7.37;;
9496;SDS011;4786;51.270;4.456;2024-02-28T04:08:40;9.47;;;7.73;;
9496;SDS011;4786;51.270;4.456;2024-02-28T04:11:06;8.93;;;8.00;;
9496;SDS011;4786;51.270;4.456;2024-02-28T04:13:33;8.93;;;7.37;;
9496;SDS011;4786;51.270;4.456;2024-02-28T04:15:59;8.33;;;7.50;;
9496;SDS011;4786;51.270;4.456;2024-02-28T04:18:26;9.07;;;7.83;;
9496;SDS011;4786;51.270;4.456;2024-02-28T04:20:52;11.20;;;8.40;;
9496;SDS011;4786;51.270;4.456;2024-02-28T04:23:19;11.80;;;9.00;;
9496;SDS011;4786;51.270;4.456;2024-02-28T04:25:45;9.53;;;8.47;;
9496;SDS011;4786;51.270;4.456;2024-02-28T04:28:11;9.70;;;8.37;;
9496;SDS011;4786;51.270;4.456;2024-02-28T04:30:37;9.87;;;8.57;;
9496;SDS011;4786;51.270;4.456;2024-02-28T04:33:03;9.70;;;8.70;;
9496;SDS011;4786;51.270;4.456;2024-02-28T04:35:29;10.73;;;8.73;;
9496;SDS011;4786;51.270;4.456;2024-02-28T04:37:55;9.67;;;8.63;;
9496;SDS011;4786;51.270;4.456;2024-02-28T04:40:21;11.10;;;8.90;;
9496;SDS011;4786;51.270;4.456;2024-02-28T04:42:47;10.77;;;9.07;;
9496;SDS011;4786;51.270;4.456;2024-02-28T04:45:13;11.20;;;9.17;;
9496;SDS011;4786;51.270;4.456;2024-02-28T04:47:39;10.50;;;9.40;;
9496;SDS011;4786;51.270;4.456;2024-02-28T04:50:05;12.87;;;9.47;;
9496;SDS011;4786;51.270;4.456;2024-02-28T04:52:31;11.70;;;9.10;;
9496;SDS011;4786;51.270;4.456;2024-02-28T04:54:57;10.63;;;8.87;;
9496;SDS011;4786;51.270;4.456;2024-02-28T04:57:23;12.10;;;10.17;;
9496;SDS011;4786;51.270;4.456;2024-02-28T04:59:49;13.67;;;9.83;;
9496;SDS011;4786;51.270;4.456;2024-02-28T05:02:15;12.03;;;10.20;;
9496;SDS011;4786;51.270;4.456;2024-02-28T05:04:42;13.27;;;10.40;;
9496;SDS011;4786;51.270;4.456;2024-02-28T05:07:08;14.43;;;11.43;;
9496;SDS011;4786;51.270;4.456;2024-02-28T05:09:34;13.23;;;11.33;;
9496;SDS011;4786;51.270;4.456;2024-02-28T05:12:01;14.33;;;10.73;;
9496;SDS011;4786;51.270;4.456;2024-02-28T05:14:27;12.03;;;10.10;;
9496;SDS011;4786;51.270;4.456;2024-02-28T05:16:53;11.23;;;10.13;;
9496;SDS011;4786;51.270;4.456;2024-02-28T05:19:19;21.63;;;12.87;;
9496;SDS011;4786;51.270;4.456;2024-02-28T05:21:45;13.20;;;11.67;;
9496;SDS011;4786;51.270;4.456;2024-02-28T05:24:11;14.27;;;11.17;;
9496;SDS011;4786;51.270;4.456;2024-02-28T05:26:38;14.30;;;11.93;;
9496;SDS011;4786;51.270;4.456;2024-02-28T05:29:04;13.83;;;12.37;;
9496;SDS011;4786;51.270;4.456;2024-02-28T05:31:31;14.93;;;12.20;;
9496;SDS011;4786;51.270;4.456;2024-02-28T05:33:58;19.73;;;12.77;;
9496;SDS011;4786;51.270;4.456;2024-02-28T05:36:26;18.53;;;12.27;;
9496;SDS011;4786;51.270;4.456;2024-02-28T05:38:55;13.50;;;12.10;;
9496;SDS011;4786;51.270;4.456;2024-02-28T05:41:22;14.80;;;12.43;;
9496;SDS011;4786;51.270;4.456;2024-02-28T05:43:49;15.10;;;12.77;;
9496;SDS011;4786;51.270;4.456;2024-02-28T05:46:15;20.33;;;14.50;;
9496;SDS011;4786;51.270;4.456;2024-02-28T05:48:43;17.20;;;12.67;;
9496;SDS011;4786;51.270;4.456;2024-02-28T05:51:10;18.67;;;13.80;;
9496;SDS011;4786;51.270;4.456;2024-02-28T05:53:37;20.13;;;14.40;;
9496;SDS011;4786;51.270;4.456;2024-02-28T05:56:06;16.97;;;12.63;;
9496;SDS011;4786;51.270;4.456;2024-02-28T05:58:47;18.40;;;13.90;;
9496;SDS011;4786;51.270;4.456;2024-02-28T06:01:17;14.73;;;12.60;;
9496;SDS011;4786;51.270;4.456;2024-02-28T06:03:45;15.03;;;12.07;;
9496;SDS011;4786;51.270;4.456;2024-02-28T06:06:12;15.27;;;13.27;;
9496;SDS011;4786;51.270;4.456;2024-02-28T06:08:39;14.77;;;13.07;;
9496;SDS011;4786;51.270;4.456;2024-02-28T06:11:06;20.73;;;14.73;;
9496;SDS011;4786;51.270;4.456;2024-02-28T06:13:32;18.13;;;14.70;;
9496;SDS011;4786;51.270;4.456;2024-02-28T06:15:58;16.40;;;13.83;;
9496;SDS011;4786;51.270;4.456;2024-02-28T06:18:24;20.97;;;14.93;;
9496;SDS011;4786;51.270;4.456;2024-02-28T06:20:55;16.10;;;14.00;;
9496;SDS011;4786;51.270;4.456;2024-02-28T06:23:25;19.03;;;14.53;;
9496;SDS011;4786;51.270;4.456;2024-02-28T06:25:50;17.67;;;14.63;;
9496;SDS011;4786;51.270;4.456;2024-02-28T06:28:17;19.00;;;15.20;;
9496;SDS011;4786;51.270;4.456;2024-02-28T06:30:43;22.83;;;14.60;;
9496;SDS011;4786;51.270;4.456;2024-02-28T06:33:11;20.40;;;14.30;;
9496;SDS011;4786;51.270;4.456;2024-02-28T06:35:37;17.03;;;14.40;;
9496;SDS011;4786;51.270;4.456;2024-02-28T06:38:03;17.53;;;13.70;;
9496;SDS011;4786;51.270;4.456;2024-02-28T06:40:29;18.73;;;14.90;;
9496;SDS011;4786;51.270;4.456;2024-02-28T06:42:55;17.40;;;13.77;;
9496;SDS011;4786;51.270;4.456;2024-02-28T06:45:21;18.13;;;14.67;;
9496;SDS011;4786;51.270;4.456;2024-02-28T06:47:46;24.87;;;15.53;;
9496;SDS011;4786;51.270;4.456;2024-02-28T06:50:13;18.53;;;13.83;;
9496;SDS011;4786;51.270;4.456;2024-02-28T06:52:41;15.17;;;13.60;;
9496;SDS011;4786;51.270;4.456;2024-02-28T06:55:06;20.57;;;15.07;;
9496;SDS011;4786;51.270;4.456;2024-02-28T06:57:40;19.77;;;15.80;;
9496;SDS011;4786;51.270;4.456;2024-02-28T07:00:07;17.57;;;15.40;;
9496;SDS011;4786;51.270;4.456;2024-02-28T07:02:34;18.13;;;15.00;;
9496;SDS011;4786;51.270;4.456;2024-02-28T07:05:01;16.97;;;15.17;;
9496;SDS011;4786;51.270;4.456;2024-02-28T07:07:28;17.07;;;13.87;;
9496;SDS011;4786;51.270;4.456;2024-02-28T07:09:53;20.23;;;15.50;;
9496;SDS011;4786;51.270;4.456;2024-02-28T07:12:19;19.90;;;16.03;;
9496;SDS011;4786;51.270;4.456;2024-02-28T07:14:45;19.47;;;14.73;;
9496;SDS011;4786;51.270;4.456;2024-02-28T07:17:11;20.87;;;16.10;;
9496;SDS011;4786;51.270;4.456;2024-02-28T07:19:36;18.63;;;15.13;;
9496;SDS011;4786;51.270;4.456;2024-02-28T07:22:03;23.77;;;16.03;;
9496;SDS011;4786;51.270;4.456;2024-02-28T07:24:30;16.10;;;14.40;;
9496;SDS011;4786;51.270;4.456;2024-02-28T07:26:56;17.90;;;14.53;;
9496;SDS011;4786;51.270;4.456;2024-02-28T07:29:22;23.30;;;16.50;;
9496;SDS011;4786;51.270;4.456;2024-02-28T07:31:52;20.03;;;15.67;;
9496;SDS011;4786;51.270;4.456;2024-02-28T07:34:18;18.80;;;15.47;;
9496;SDS011;4786;51.270;4.456;2024-02-28T07:36:44;23.83;;;17.47;;
9496;SDS011;4786;51.270;4.456;2024-02-28T07:39:10;19.90;;;15.57;;
9496;SDS011;4786;51.270;4.456;2024-02-28T07:41:39;21.80;;;15.33;;
9496;SDS011;4786;51.270;4.456;2024-02-28T07:44:06;17.63;;;14.27;;
9496;SDS011;4786;51.270;4.456;2024-02-28T07:46:36;19.60;;;14.30;;
9496;SDS011;4786;51.270;4.456;2024-02-28T07:49:01;18.97;;;15.43;;
9496;SDS011;4786;51.270;4.456;2024-02-28T07:51:28;19.90;;;15.77;;
9496;SDS011;4786;51.270;4.456;2024-02-28T07:53:59;21.63;;;16.00;;
9496;SDS011;4786;51.270;4.456;2024-02-28T07:56:26;23.90;;;16.20;;
9496;SDS011;4786;51.270;4.456;2024-02-28T07:58:51;19.43;;;15.53;;
9496;SDS011;4786;51.270;4.456;2024-02-28T08:01:17;20.77;;;15.73;;
9496;SDS011;4786;51.270;4.456;2024-02-28T08:03:43;19.97;;;15.30;;
9496;SDS011;4786;51.270;4.456;2024-02-28T08:06:08;19.53;;;16.10;;
9496;SDS011;4786;51.270;4.456;2024-02-28T08:08:35;19.77;;;15.97;;
9496;SDS011;4786;51.270;4.456;2024-02-28T08:11:01;25.93;;;16.07;;
9496;SDS011;4786;51.270;4.456;2024-02-28T08:13:28;20.97;;;16.43;;
9496;SDS011;4786;51.270;4.456;2024-02-28T08:15:54;19.33;;;15.13;;
9496;SDS011;4786;51.270;4.456;2024-02-28T08:18:20;17.97;;;16.07;;
9496;SDS011;4786;51.270;4.456;2024-02-28T08:20:47;24.03;;;16.53;;
9496;SDS011;4786;51.270;4.456;2024-02-28T08:23:13;22.00;;;16.57;;
9496;SDS011;4786;51.270;4.456;2024-02-28T08:25:39;21.20;;;16.17;;
9496;SDS011;4786;51.270;4.456;2024-02-28T08:28:05;22.63;;;17.33;;
9496;SDS011;4786;51.270;4.456;2024-02-28T08:30:31;29.53;;;17.70;;
9496;SDS011;4786;51.270;4.456;2024-02-28T08:32:59;23.40;;;17.50;;
9496;SDS011;4786;51.270;4.456;2024-02-28T08:35:25;26.43;;;17.20;;
9496;SDS011;4786;51.270;4.456;2024-02-28T08:37:51;23.40;;;17.77;;
9496;SDS011;4786;51.270;4.456;2024-02-28T08:40:18;23.87;;;16.77;;
9496;SDS011;4786;51.270;4.456;2024-02-28T08:42:43;27.03;;;17.80;;
9496;SDS011;4786;51.270;4.456;2024-02-28T08:45:11;26.10;;;17.27;;
9496;SDS011;4786;51.270;4.456;2024-02-28T08:47:37;28.23;;;18.00;;
9496;SDS011;4786;51.270;4.456;2024-02-28T08:50:03;26.50;;;17.23;;
9496;SDS011;4786;51.270;4.456;2024-02-28T08:52:29;28.03;;;17.63;;
9496;SDS011;4786;51.270;4.456;2024-02-28T08:54:55;28.27;;;18.87;;
9496;SDS011;4786;51.270;4.456;2024-02-28T08:57:21;23.83;;;17.57;;
9496;SDS011;4786;51.270;4.456;2024-02-28T08:59:48;25.80;;;17.63;;
9496;SDS011;4786;51.270;4.456;2024-02-28T09:02:14;34.73;;;19.37;;
9496;SDS011;4786;51.270;4.456;2024-02-28T09:04:40;30.47;;;18.40;;
9496;SDS011;4786;51.270;4.456;2024-02-28T09:07:06;32.73;;;18.63;;
9496;SDS011;4786;51.270;4.456;2024-02-28T09:09:32;32.93;;;19.70;;
9496;SDS011;4786;51.270;4.456;2024-02-28T09:12:02;33.50;;;19.90;;
9496;SDS011;4786;51.270;4.456;2024-02-28T09:14:28;29.03;;;19.57;;
9496;SDS011;4786;51.270;4.456;2024-02-28T09:16:54;32.33;;;20.00;;
9496;SDS011;4786;51.270;4.456;2024-02-28T09:19:28;29.57;;;19.63;;
9496;SDS011;4786;51.270;4.456;2024-02-28T09:21:55;27.70;;;19.77;;
9496;SDS011;4786;51.270;4.456;2024-02-28T09:24:20;33.83;;;20.33;;
9496;SDS011;4786;51.270;4.456;2024-02-28T09:26:46;31.63;;;20.10;;
9496;SDS011;4786;51.270;4.456;2024-02-28T09:29:12;33.03;;;20.60;;
9496;SDS011;4786;51.270;4.456;2024-02-28T09:31:37;31.27;;;19.87;;
9496;SDS011;4786;51.270;4.456;2024-02-28T09:34:05;30.23;;;19.77;;
9496;SDS011;4786;51.270;4.456;2024-02-28T09:36:33;34.37;;;20.43;;
9496;SDS011;4786;51.270;4.456;2024-02-28T09:39:05;33.10;;;20.63;;
9496;SDS011;4786;51.270;4.456;2024-02-28T09:41:31;36.00;;;20.67;;
9496;SDS011;4786;51.270;4.456;2024-02-28T09:43:56;39.17;;;20.47;;
9496;SDS011;4786;51.270;4.456;2024-02-28T09:46:22;33.73;;;19.57;;
9496;SDS011;4786;51.270;4.456;2024-02-28T09:48:49;32.83;;;19.63;;
9496;SDS011;4786;51.270;4.456;2024-02-28T09:51:16;37.10;;;20.13;;
9496;SDS011;4786;51.270;4.456;2024-02-28T09:53:45;35.30;;;19.50;;
9496;SDS011;4786;51.270;4.456;2024-02-28T09:56:11;39.07;;;20.00;;
9496;SDS011;4786;51.270;4.456;2024-02-28T09:58:38;32.43;;;18.47;;
9496;SDS011;4786;51.270;4.456;2024-02-28T10:01:04;37.27;;;20.07;;
9496;SDS011;4786;51.270;4.456;2024-02-28T10:03:34;38.33;;;20.00;;
9496;SDS011;4786;51.270;4.456;2024-02-28T10:06:01;34.30;;;19.10;;
9496;SDS011;4786;51.270;4.456;2024-02-28T10:08:28;39.97;;;20.73;;
9496;SDS011;4786;51.270;4.456;2024-02-28T10:10:54;33.87;;;19.30;;
9496;SDS011;4786;51.270;4.456;2024-02-28T10:13:22;39.53;;;20.47;;
9496;SDS011;4786;51.270;4.456;2024-02-28T10:15:52;32.70;;;19.50;;
9496;SDS011;4786;51.270;4.456;2024-02-28T10:18:20;33.20;;;19.30;;
9496;SDS011;4786;51.270;4.456;2024-02-28T10:20:45;32.57;;;19.03;;
9496;SDS011;4786;51.270;4.456;2024-02-28T10:23:12;34.70;;;19.77;;
9496;SDS011;4786;51.270;4.456;2024-02-28T10:25:45;31.07;;;18.57;;
9496;SDS011;4786;51.270;4.456;2024-02-28T10:28:11;30.90;;;18.53;;
9496;SDS011;4786;51.270;4.456;2024-02-28T10:30:42;30.93;;;18.87;;
9496;SDS011;4786;51.270;4.456;2024-02-28T10:33:14;30.80;;;17.80;;
9496;SDS011;4786;51.270;4.456;2024-02-28T10:35:40;27.20;;;17.07;;
9496;SDS011;4786;51.270;4.456;2024-02-28T10:38:10;24.27;;;15.30;;
9496;SDS011;4786;51.270;4.456;2024-02-28T10:40:37;34.73;;;15.80;;
9496;SDS011;4786;51.270;4.456;2024-02-28T10:43:09;24.93;;;15.43;;
9496;SDS011;4786;51.270;4.456;2024-02-28T10:45:35;23.37;;;14.73;;
9496;SDS011;4786;51.270;4.456;2024-02-28T10:48:04;21.40;;;14.43;;
9496;SDS011;4786;51.270;4.456;2024-02-28T10:50:32;23.67;;;13.83;;
9496;SDS011;4786;51.270;4.456;2024-02-28T10:53:02;23.47;;;15.37;;
9496;SDS011;4786;51.270;4.456;2024-02-28T10:55:33;20.93;;;13.67;;
9496;SDS011;4786;51.270;4.456;2024-02-28T10:58:03;23.67;;;15.37;;
9496;SDS011;4786;51.270;4.456;2024-02-28T11:00:37;25.73;;;16.30;;
9496;SDS011;4786;51.270;4.456;2024-02-28T11:03:10;19.97;;;13.87;;
9496;SDS011;4786;51.270;4.456;2024-02-28T11:05:38;20.33;;;14.33;;
9496;SDS011;4786;51.270;4.456;2024-02-28T11:08:09;19.87;;;13.70;;
9496;SDS011;4786;51.270;4.456;2024-02-28T11:10:39;18.23;;;14.20;;
9496;SDS011;4786;51.270;4.456;2024-02-28T11:13:09;20.43;;;14.03;;
9496;SDS011;4786;51.270;4.456;2024-02-28T11:15:36;21.33;;;13.67;;
9496;SDS011;4786;51.270;4.456;2024-02-28T11:18:08;16.73;;;13.63;;
9496;SDS011;4786;51.270;4.456;2024-02-28T11:20:35;19.13;;;12.33;;
9496;SDS011;4786;51.270;4.456;2024-02-28T11:23:01;17.30;;;11.53;;
9496;SDS011;4786;51.270;4.456;2024-02-28T11:25:27;17.33;;;12.03;;
9496;SDS011;4786;51.270;4.456;2024-02-28T11:27:53;17.37;;;11.93;;
9496;SDS011;4786;51.270;4.456;2024-02-28T11:30:19;14.30;;;11.00;;
9496;SDS011;4786;51.270;4.456;2024-02-28T11:32:45;15.30;;;11.17;;
9496;SDS011;4786;51.270;4.456;2024-02-28T11:35:10;14.77;;;10.90;;
9496;SDS011;4786;51.270;4.456;2024-02-28T11:37:39;12.43;;;10.20;;
9496;SDS011;4786;51.270;4.456;2024-02-28T11:40:07;13.73;;;9.83;;
9496;SDS011;4786;51.270;4.456;2024-02-28T11:42:34;17.50;;;9.67;;
9496;SDS011;4786;51.270;4.456;2024-02-28T11:45:01;10.57;;;9.00;;
9496;SDS011;4786;51.270;4.456;2024-02-28T11:47:30;10.90;;;8.97;;
9496;SDS011;4786;51.270;4.456;2024-02-28T11:49:58;12.73;;;9.70;;
9496;SDS011;4786;51.270;4.456;2024-02-28T11:52:26;13.03;;;8.97;;
9496;SDS011;4786;51.270;4.456;2024-02-28T11:54:52;11.43;;;8.03;;
9496;SDS011;4786;51.270;4.456;2024-02-28T11:57:18;11.00;;;9.17;;
9496;SDS011;4786;51.270;4.456;2024-02-28T11:59:45;15.40;;;8.00;;
9496;SDS011;4786;51.270;4.456;2024-02-28T12:02:11;11.33;;;8.77;;
9496;SDS011;4786;51.270;4.456;2024-02-28T12:04:38;14.30;;;8.97;;
9496;SDS011;4786;51.270;4.456;2024-02-28T12:07:05;12.93;;;8.90;;
9496;SDS011;4786;51.270;4.456;2024-02-28T12:09:33;12.23;;;8.70;;
9496;SDS011;4786;51.270;4.456;2024-02-28T12:12:01;12.10;;;8.97;;
9496;SDS011;4786;51.270;4.456;2024-02-28T12:14:31;10.57;;;8.43;;
9496;SDS011;4786;51.270;4.456;2024-02-28T12:16:57;9.97;;;8.17;;
9496;SDS011;4786;51.270;4.456;2024-02-28T12:19:23;12.30;;;8.53;;
9496;SDS011;4786;51.270;4.456;2024-02-28T12:21:49;10.77;;;8.20;;
9496;SDS011;4786;51.270;4.456;2024-02-28T12:24:15;11.90;;;8.10;;
9496;SDS011;4786;51.270;4.456;2024-02-28T12:26:41;10.10;;;8.87;;
9496;SDS011;4786;51.270;4.456;2024-02-28T12:29:07;11.13;;;8.63;;
9496;SDS011;4786;51.270;4.456;2024-02-28T12:31:35;12.00;;;9.40;;
9496;SDS011;4786;51.270;4.456;2024-02-28T12:34:01;9.40;;;8.40;;
9496;SDS011;4786;51.270;4.456;2024-02-28T12:36:28;10.27;;;8.13;;
9496;SDS011;4786;51.270;4.456;2024-02-28T12:38:56;9.10;;;8.10;;
9496;SDS011;4786;51.270;4.456;2024-02-28T12:41:22;13.63;;;8.10;;
9496;SDS011;4786;51.270;4.456;2024-02-28T12:43:48;9.23;;;7.50;;
9496;SDS011;4786;51.270;4.456;2024-02-28T12:46:15;8.13;;;7.00;;
9496;SDS011;4786;51.270;4.456;2024-02-28T12:48:41;9.83;;;8.00;;
9496;SDS011;4786;51.270;4.456;2024-02-28T12:51:08;10.83;;;8.60;;
9496;SDS011;4786;51.270;4.456;2024-02-28T12:53:36;10.00;;;7.87;;
9496;SDS011;4786;51.270;4.456;2024-02-28T12:56:02;12.23;;;8.23;;
9496;SDS011;4786;51.270;4.456;2024-02-28T12:58:28;8.43;;;7.63;;
9496;SDS011;4786;51.270;4.456;2024-02-28T13:00:54;10.47;;;7.37;;
9496;SDS011;4786;51.270;4.456;2024-02-28T13:03:20;7.83;;;7.13;;
9496;SDS011;4786;51.270;4.456;2024-02-28T13:05:46;10.33;;;7.67;;
9496;SDS011;4786;51.270;4.456;2024-02-28T13:08:12;10.43;;;8.73;;
9496;SDS011;4786;51.270;4.456;2024-02-28T13:10:38;10.53;;;8.03;;
9496;SDS011;4786;51.270;4.456;2024-02-28T13:13:07;11.23;;;7.70;;
9496;SDS011;4786;51.270;4.456;2024-02-28T13:15:33;9.73;;;7.27;;
9496;SDS011;4786;51.270;4.456;2024-02-28T13:17:59;8.47;;;7.67;;
9496;SDS011;4786;51.270;4.456;2024-02-28T13:20:26;9.10;;;8.13;;
9496;SDS011;4786;51.270;4.456;2024-02-28T13:22:52;10.63;;;8.27;;
9496;SDS011;4786;51.270;4.456;2024-02-28T13:25:18;9.87;;;7.90;;
9496;SDS011;4786;51.270;4.456;2024-02-28T13:27:45;9.60;;;8.20;;
9496;SDS011;4786;51.270;4.456;2024-02-28T13:30:12;9.90;;;8.03;;
9496;SDS011;4786;51.270;4.456;2024-02-28T13:32:39;11.53;;;8.43;;
9496;SDS011;4786;51.270;4.456;2024-02-28T13:35:05;11.47;;;8.07;;
9496;SDS011;4786;51.270;4.456;2024-02-28T13:37:32;12.30;;;8.17;;
9496;SDS011;4786;51.270;4.456;2024-02-28T13:39:58;12.03;;;7.70;;
9496;SDS011;4786;51.270;4.456;2024-02-28T13:42:24;11.63;;;7.60;;
9496;SDS011;4786;51.270;4.456;2024-02-28T13:44:50;10.43;;;7.77;;
9496;SDS011;4786;51.270;4.456;2024-02-28T13:47:16;9.30;;;7.40;;
9496;SDS011;4786;51.270;4.456;2024-02-28T13:49:42;7.43;;;6.73;;
9496;SDS011;4786;51.270;4.456;2024-02-28T13:52:08;10.83;;;7.00;;
9496;SDS011;4786;51.270;4.456;2024-02-28T13:54:33;7.57;;;6.33;;
9496;SDS011;4786;51.270;4.456;2024-02-28T13:57:00;7.77;;;6.13;;
9496;SDS011;4786;51.270;4.456;2024-02-28T13:59:26;6.97;;;6.27;;
9496;SDS011;4786;51.270;4.456;2024-02-28T14:01:52;6.60;;;5.97;;
9496;SDS011;4786;51.270;4.456;2024-02-28T14:04:18;9.47;;;6.17;;
9496;SDS011;4786;51.270;4.456;2024-02-28T14:06:44;6.83;;;5.73;;
9496;SDS011;4786;51.270;4.456;2024-02-28T14:09:13;7.23;;;5.80;;
9496;SDS011;4786;51.270;4.456;2024-02-28T14:11:40;10.03;;;5.87;;
9496;SDS011;4786;51.270;4.456;2024-02-28T14:14:05;6.63;;;5.27;;
9496;SDS011;4786;51.270;4.456;2024-02-28T14:16:32;7.03;;;5.47;;
9496;SDS011;4786;51.270;4.456;2024-02-28T14:18:58;6.00;;;5.40;;
9496;SDS011;4786;51.270;4.456;2024-02-28T14:21:24;6.23;;;5.40;;
9496;SDS011;4786;51.270;4.456;2024-02-28T14:23:50;6.80;;;5.77;;
9496;SDS011;4786;51.270;4.456;2024-02-28T14:26:17;9.13;;;5.37;;
9496;SDS011;4786;51.270;4.456;2024-02-28T14:28:42;6.70;;;5.50;;
9496;SDS011;4786;51.270;4.456;2024-02-28T14:31:08;5.97;;;5.30;;
9496;SDS011;4786;51.270;4.456;2024-02-28T14:33:34;6.97;;;5.03;;
9496;SDS011;4786;51.270;4.456;2024-02-28T14:36:01;6.77;;;5.10;;
9496;SDS011;4786;51.270;4.456;2024-02-28T14:38:30;7.03;;;5.53;;
9496;SDS011;4786;51.270;4.456;2024-02-28T14:40:56;8.50;;;5.47;;
9496;SDS011;4786;51.270;4.456;2024-02-28T14:43:22;7.33;;;5.20;;
9496;SDS011;4786;51.270;4.456;2024-02-28T14:45:48;6.87;;;5.00;;
9496;SDS011;4786;51.270;4.456;2024-02-28T14:48:14;6.73;;;5.10;;
9496;SDS011;4786;51.270;4.456;2024-02-28T14:50:40;7.80;;;5.10;;
9496;SDS011;4786;51.270;4.456;2024-02-28T14:53:07;5.60;;;4.53;;
9496;SDS011;4786;51.270;4.456;2024-02-28T14:55:33;5.67;;;4.77;;
9496;SDS011;4786;51.270;4.456;2024-02-28T14:57:59;7.83;;;5.03;;